Terminal Aerodrome Forecast
Issued by NWS

Home | Current Version | Previous Version | Text Only | Print | Product List | Glossary On
Versions: 1 2 3 4 5 6 7 8 9 10 11 12 13 14 15 16 17 18 19 20 21 22 23 24 25 26 27 28
000
FTUS41 KOKX 041733
TAFTEB
TAF
KTEB 041733Z 0418/0518 34009KT P6SM SCT250
     FM042100 35005KT P6SM BKN250
     FM050100 VRB03KT P6SM FEW150 BKN250
     FM050700 VRB04KT 6SM -RA BKN030 OVC080
     FM050900 16004KT 4SM -RA SCT010 BKN020
     FM051500 23007KT 6SM BR SCT010 BKN020=

USA.gov is the U.S. government's official web portal to all federal, state and local government web resources and services.